createdAt,value
2022-08-09T00:00:04.272Z,1.90
2022-08-09T00:04:00.462Z,1.60
2022-08-09T00:06:32.720Z,1.67
2022-08-09T00:09:35.158Z,1.67
2022-08-09T00:12:38.695Z,1.70
2022-08-09T00:15:58.158Z,1.70
2022-08-09T00:19:01.968Z,1.77
2022-08-09T00:22:11.352Z,1.70
2022-08-09T00:25:12.981Z,1.33
2022-08-09T00:28:14.437Z,1.70
2022-08-09T00:31:58.722Z,1.60
2022-08-09T00:34:37.549Z,1.80
2022-08-09T00:37:39.793Z,1.40
2022-08-09T00:40:53.304Z,1.70
2022-08-09T00:44:27.173Z,1.90
2022-08-09T00:47:16.726Z,1.67
2022-08-09T00:50:21.398Z,1.63
2022-08-09T00:53:24.869Z,1.80
2022-08-09T00:56:30.321Z,1.80
2022-08-09T00:59:41.714Z,1.57
2022-08-09T01:02:50.168Z,1.77
2022-08-09T01:06:13.929Z,1.43
2022-08-09T01:09:39.928Z,1.73
2022-08-09T01:13:31.089Z,1.60
2022-08-09T01:16:47.494Z,1.60
2022-08-09T01:20:04.127Z,1.77
2022-08-09T01:24:03.364Z,1.90
2022-08-09T01:27:19.930Z,1.90
2022-08-09T01:30:33.562Z,1.87
2022-08-09T01:33:40.370Z,1.90
2022-08-09T01:36:43.753Z,2.10
2022-08-09T01:39:48.604Z,1.70
2022-08-09T01:42:51.041Z,1.60
2022-08-09T01:45:54.270Z,1.60
2022-08-09T01:49:10.520Z,2.00
2022-08-09T01:52:17.697Z,2.00
2022-08-09T01:55:20.977Z,1.60
2022-08-09T01:58:24.412Z,2.13
2022-08-09T02:01:58.560Z,1.90
2022-08-09T02:04:51.543Z,1.83
2022-08-09T02:08:35.516Z,2.30
2022-08-09T02:11:42.957Z,2.10
2022-08-09T02:14:47.695Z,2.10
2022-08-09T02:18:00.228Z,1.70
2022-08-09T02:21:11.055Z,1.80
2022-08-09T02:24:26.027Z,2.27
2022-08-09T02:27:57.366Z,1.77
2022-08-09T02:31:03.448Z,1.80
2022-08-09T02:34:38.608Z,2.27
2022-08-09T02:37:45.409Z,2.00
2022-08-09T02:40:48.087Z,1.90
2022-08-09T02:43:54.588Z,1.80
2022-08-09T02:47:01.680Z,1.70
2022-08-09T02:50:10.976Z,1.73
2022-08-09T02:53:26.237Z,2.57
2022-08-09T02:56:31.580Z,1.73
2022-08-09T02:59:36.951Z,1.90
2022-08-09T03:02:58.006Z,2.00
2022-08-09T03:06:02.644Z,1.83
2022-08-09T03:09:06.238Z,2.10
2022-08-09T03:12:10.750Z,1.77
2022-08-09T03:15:13.961Z,2.00
2022-08-09T03:18:16.111Z,2.10
2022-08-09T03:21:36.414Z,1.77
2022-08-09T03:24:42.548Z,1.80
2022-08-09T03:27:55.391Z,1.80
2022-08-09T03:30:58.158Z,1.90
2022-08-09T03:34:02.900Z,2.13
2022-08-09T03:37:10.740Z,1.97
2022-08-09T03:40:30.898Z,2.00
2022-08-09T03:43:33.135Z,1.90
2022-08-09T03:46:35.112Z,1.77
2022-08-09T03:49:36.734Z,2.27
2022-08-09T03:52:42.405Z,1.87
2022-08-09T03:55:44.057Z,1.90
2022-08-09T03:58:46.062Z,1.90
2022-08-09T04:01:53.508Z,2.07
2022-08-09T04:05:00.832Z,1.63
2022-08-09T04:08:02.714Z,2.00
2022-08-09T04:11:05.611Z,2.00
2022-08-09T04:14:53.758Z,2.10
2022-08-09T04:17:29.540Z,2.10
2022-08-09T04:20:32.781Z,1.97
2022-08-09T04:23:34.304Z,2.00
2022-08-09T04:26:38.089Z,2.03
2022-08-09T04:29:39.810Z,2.17
2022-08-09T04:32:51.518Z,2.47
2022-08-09T04:35:53.226Z,2.40
2022-08-09T04:39:00.510Z,2.00
2022-08-09T04:42:02.593Z,2.43
2022-08-09T04:45:05.005Z,1.93
2022-08-09T04:48:10.328Z,1.80
2022-08-09T04:51:12.619Z,2.27
2022-08-09T04:54:18.651Z,2.30
2022-08-09T04:57:21.596Z,2.07
2022-08-09T05:00:25.872Z,2.30
2022-08-09T05:03:42.622Z,2.57
2022-08-09T05:06:45.158Z,2.50
2022-08-09T05:09:52.124Z,2.80
2022-08-09T05:12:53.697Z,2.60
2022-08-09T05:15:57.003Z,2.40
2022-08-09T05:19:00.219Z,2.03
2022-08-09T05:22:02.164Z,2.13
2022-08-09T05:25:05.107Z,2.20
2022-08-09T05:28:06.726Z,2.23
2022-08-09T05:31:09.692Z,2.40
2022-08-09T05:34:16.975Z,2.47
2022-08-09T05:37:19.348Z,2.17
2022-08-09T05:40:21.762Z,2.60
2022-08-09T05:43:23.915Z,2.60
2022-08-09T05:46:30.547Z,2.33
2022-08-09T05:50:30.563Z,2.50
2022-08-09T05:52:54.867Z,3.03
2022-08-09T05:55:56.517Z,2.60
2022-08-09T05:58:58.665Z,3.27
2022-08-09T06:02:00.226Z,2.50
2022-08-09T06:05:03.929Z,4.33
2022-08-09T06:08:09.060Z,2.93
2022-08-09T06:11:17.271Z,2.43
2022-08-09T06:14:19.287Z,2.47
2022-08-09T06:17:20.710Z,2.67
2022-08-09T06:20:22.348Z,2.87
2022-08-09T06:23:57.410Z,2.63
2022-08-09T06:26:47.437Z,2.20
2022-08-09T06:30:04.313Z,2.47
2022-08-09T06:33:29.917Z,2.43
2022-08-09T06:36:29.879Z,2.17
2022-08-09T06:39:48.831Z,2.20
2022-08-09T06:42:53.805Z,2.27
2022-08-09T06:46:06.167Z,2.33
2022-08-09T06:49:12.652Z,2.20
2022-08-09T06:52:17.722Z,2.07
2022-08-09T06:55:23.308Z,2.30
2022-08-09T06:58:40.696Z,2.13
2022-08-09T07:01:54.122Z,2.30
2022-08-09T07:05:00.879Z,2.00
2022-08-09T07:08:02.303Z,1.80
2022-08-09T07:11:06.322Z,2.43
2022-08-09T07:14:08.798Z,1.93
2022-08-09T07:17:10.276Z,1.90
2022-08-09T07:20:14.568Z,1.97
2022-08-09T07:23:18.620Z,2.00
2022-08-09T07:26:21.138Z,1.97
2022-08-09T07:29:24.634Z,2.03
2022-08-09T07:32:32.951Z,1.80
2022-08-09T07:35:53.443Z,2.07
2022-08-09T07:39:01.010Z,2.40
2022-08-09T07:42:05.119Z,2.70
2022-08-09T07:45:14.894Z,1.90
2022-08-09T07:48:30.120Z,1.97
2022-08-09T07:52:04.923Z,1.90
2022-08-09T07:54:53.691Z,1.70
2022-08-09T07:57:55.584Z,1.80
2022-08-09T08:01:06.782Z,1.93
2022-08-09T08:04:16.230Z,2.30
2022-08-09T08:08:43.176Z,2.10
2022-08-09T08:10:40.127Z,2.23
2022-08-09T08:14:01.551Z,2.00
2022-08-09T08:17:08.660Z,1.97
2022-08-09T08:20:14.473Z,2.00
2022-08-09T08:23:17.867Z,2.00
2022-08-09T08:26:19.458Z,2.40
2022-08-09T08:29:45.280Z,2.20
2022-08-09T08:32:53.873Z,1.85
2022-08-09T08:36:00.130Z,1.60
2022-08-09T08:39:03.498Z,1.92
2022-08-09T08:42:05.515Z,1.88
2022-08-09T08:45:11.968Z,1.70
2022-08-09T08:48:16.855Z,1.80
2022-08-09T08:51:23.973Z,1.77
2022-08-09T08:54:29.817Z,1.98
2022-08-09T08:57:35.151Z,1.90
2022-08-09T09:00:37.488Z,1.73
2022-08-09T09:03:41.345Z,1.88
2022-08-09T09:06:46.217Z,1.90
2022-08-09T09:10:02.485Z,1.85
2022-08-09T09:13:09.317Z,1.88
2022-08-09T09:16:11.369Z,1.90
2022-08-09T09:19:40.886Z,1.92
2022-08-09T09:23:01.855Z,1.80
2022-08-09T09:26:12.038Z,1.90
2022-08-09T09:29:17.228Z,1.60
2022-08-09T09:32:32.219Z,2.50
2022-08-09T09:36:00.630Z,1.98
2022-08-09T09:39:08.801Z,1.80
2022-08-09T09:42:26.339Z,1.90
2022-08-09T09:45:30.736Z,1.70
2022-08-09T09:48:33.321Z,1.80
2022-08-09T09:51:38.082Z,1.98
2022-08-09T09:54:55.140Z,2.00
2022-08-09T09:58:16.301Z,2.00
2022-08-09T10:01:31.140Z,1.95
2022-08-09T10:04:41.150Z,1.90
2022-08-09T10:08:10.967Z,2.10
2022-08-09T10:11:59.443Z,1.80
2022-08-09T10:14:37.856Z,1.75
2022-08-09T10:17:56.203Z,1.80
2022-08-09T10:21:10.782Z,1.90
2022-08-09T10:24:16.090Z,1.67
2022-08-09T10:27:34.523Z,1.88
2022-08-09T10:34:09.775Z,1.80
2022-08-09T10:37:20.194Z,2.00
2022-08-09T10:40:33.260Z,1.88
2022-08-09T10:43:50.554Z,1.60
2022-08-09T10:48:13.364Z,1.92
2022-08-09T10:51:01.941Z,1.67
2022-08-09T10:54:12.272Z,1.60
2022-08-09T10:57:14.986Z,1.70
2022-08-09T11:00:28.521Z,1.60
2022-08-09T11:03:49.705Z,1.83
2022-08-09T11:07:03.630Z,1.60
2022-08-09T11:10:05.969Z,1.65
2022-08-09T11:13:51.183Z,1.70
2022-08-09T11:16:39.205Z,1.88
2022-08-09T11:20:12.712Z,1.90
2022-08-09T11:23:30.256Z,1.70
2022-08-09T11:26:52.164Z,1.80
2022-08-09T11:30:04.567Z,2.03
2022-08-09T11:33:19.664Z,1.52
2022-08-09T11:36:35.311Z,1.88
2022-08-09T11:40:01.147Z,1.77
2022-08-09T11:43:04.302Z,1.70
2022-08-09T11:46:06.300Z,1.80
2022-08-09T11:49:07.719Z,1.85
2022-08-09T11:53:16.262Z,1.80
2022-08-09T11:55:52.811Z,1.70
2022-08-09T11:59:05.428Z,1.70
2022-08-09T12:02:34.107Z,1.88
2022-08-09T12:05:39.844Z,1.92
2022-08-09T12:08:53.876Z,1.60
2022-08-09T12:12:04.042Z,1.80
2022-08-09T12:15:49.533Z,1.67
2022-08-09T12:18:53.915Z,1.70
2022-08-09T12:22:01.145Z,1.80
2022-08-09T12:25:15.949Z,2.05
2022-08-09T12:29:10.892Z,2.20
2022-08-09T12:32:02.781Z,1.63
2022-08-09T12:35:10.774Z,1.70
2022-08-09T12:38:29.719Z,1.92
2022-08-09T12:41:40.517Z,1.73
2022-08-09T12:44:46.403Z,1.77
2022-08-09T12:47:53.728Z,1.75
2022-08-09T12:50:56.129Z,2.00
2022-08-09T12:54:00.637Z,1.60
2022-08-09T12:57:03.010Z,1.70
2022-08-09T13:00:25.373Z,1.90
2022-08-09T13:03:53.060Z,1.70
2022-08-09T13:06:54.137Z,1.60
2022-08-09T13:10:03.900Z,1.80
2022-08-09T13:13:09.652Z,1.63
2022-08-09T13:16:15.777Z,1.52
2022-08-09T13:19:26.276Z,1.80
2022-08-09T13:23:00.279Z,1.73
2022-08-09T13:26:03.731Z,1.85
2022-08-09T13:29:14.164Z,1.58
2022-08-09T13:32:26.428Z,1.70
2022-08-09T13:35:34.576Z,1.80
2022-08-09T13:38:57.410Z,1.70
2022-08-09T13:42:17.735Z,1.60
2022-08-09T13:45:20.192Z,1.77
2022-08-09T13:48:21.676Z,1.67
2022-08-09T13:51:27.099Z,1.52
2022-08-09T13:54:30.417Z,1.50
2022-08-09T13:57:39.548Z,1.58
2022-08-09T14:00:49.966Z,1.70
2022-08-09T14:04:04.803Z,1.55
2022-08-09T14:07:07.147Z,1.60
2022-08-09T14:10:17.480Z,1.50
2022-08-09T14:14:24.068Z,1.45
2022-08-09T14:16:54.838Z,1.48
2022-08-09T14:19:56.745Z,1.30
2022-08-09T14:22:58.270Z,1.60
2022-08-09T14:26:01.697Z,1.50
2022-08-09T14:30:04.172Z,1.48
2022-08-09T14:32:35.138Z,1.50
2022-08-09T14:35:52.715Z,1.55
2022-08-09T14:38:55.281Z,1.55
2022-08-09T14:41:56.718Z,1.70
2022-08-09T14:45:00.224Z,1.40
2022-08-09T14:48:02.686Z,1.60
2022-08-09T14:51:05.429Z,1.50
2022-08-09T14:54:09.091Z,1.50
2022-08-09T14:57:10.732Z,1.50
2022-08-09T15:00:12.381Z,1.80
2022-08-09T15:03:19.879Z,1.70
2022-08-09T15:06:22.180Z,1.60
2022-08-09T15:10:03.988Z,1.85
2022-08-09T15:12:48.601Z,1.50
2022-08-09T15:15:51.878Z,1.50
2022-08-09T15:18:54.251Z,1.30
2022-08-09T15:22:02.715Z,1.70
2022-08-09T15:25:04.675Z,1.52
2022-08-09T15:28:26.158Z,1.50
2022-08-09T15:31:28.584Z,1.60
2022-08-09T15:34:42.646Z,1.70
2022-08-09T15:37:56.773Z,1.58
2022-08-09T15:41:09.685Z,1.50
2022-08-09T15:44:11.458Z,1.63
2022-08-09T15:47:21.700Z,1.55
2022-08-09T15:50:28.923Z,1.85
2022-08-09T15:54:04.972Z,1.67
2022-08-09T15:56:52.702Z,1.58
2022-08-09T15:59:54.957Z,1.60
2022-08-09T16:02:58.475Z,2.00
2022-08-09T16:06:01.166Z,1.67
2022-08-09T16:09:06.153Z,1.80
2022-08-09T16:12:07.893Z,1.83
2022-08-09T16:16:10.739Z,2.10
2022-08-09T16:18:35.764Z,1.55
2022-08-09T16:21:38.977Z,1.70
2022-08-09T16:24:42.265Z,1.73
2022-08-09T16:27:43.880Z,1.85
2022-08-09T16:30:58.456Z,1.83
2022-08-09T16:34:02.673Z,1.80
2022-08-09T16:37:07.482Z,1.70
2022-08-09T16:40:10.857Z,1.50
2022-08-09T16:43:12.349Z,1.80
2022-08-09T16:46:21.259Z,1.88
2022-08-09T16:50:30.330Z,1.90
2022-08-09T16:52:45.134Z,1.70
2022-08-09T16:55:59.740Z,1.67
2022-08-09T16:59:06.702Z,1.90
2022-08-09T17:02:13.682Z,1.92
2022-08-09T17:05:19.981Z,1.90
2022-08-09T17:08:44.322Z,1.67
2022-08-09T17:11:44.351Z,1.48
2022-08-09T17:14:54.888Z,1.70
2022-08-09T17:18:00.730Z,1.80
2022-08-09T17:21:02.523Z,1.80
2022-08-09T17:24:27.344Z,1.77
2022-08-09T17:27:26.308Z,1.90
2022-08-09T17:30:28.799Z,2.13
2022-08-09T17:33:37.562Z,2.00
2022-08-09T17:36:40.194Z,2.10
2022-08-09T17:39:55.669Z,1.80
2022-08-09T17:42:59.795Z,2.03
2022-08-09T17:46:12.720Z,1.70
2022-08-09T17:49:18.863Z,1.90
2022-08-09T17:52:22.416Z,1.95
2022-08-09T17:55:24.105Z,2.10
2022-08-09T17:58:35.917Z,2.10
2022-08-09T18:01:57.971Z,2.00
2022-08-09T18:04:58.830Z,1.90
2022-08-09T18:08:00.486Z,2.20
2022-08-09T18:11:04.611Z,2.20
2022-08-09T18:14:13.403Z,1.90
2022-08-09T18:17:19.039Z,2.13
2022-08-09T18:20:55.493Z,1.98
2022-08-09T18:24:09.823Z,2.13
2022-08-09T18:27:49.387Z,2.03
2022-08-09T18:30:49.319Z,2.10
2022-08-09T18:33:53.289Z,2.20
2022-08-09T18:36:55.778Z,1.70
2022-08-09T18:39:57.612Z,2.30
2022-08-09T18:42:59.346Z,1.83
2022-08-09T18:46:47.765Z,2.22
2022-08-09T18:49:23.662Z,1.90
2022-08-09T18:52:34.660Z,2.00
2022-08-09T18:55:56.223Z,1.98
2022-08-09T18:58:58.535Z,1.88
2022-08-09T19:02:03.505Z,1.92
2022-08-09T19:05:19.693Z,1.90
2022-08-09T19:08:28.052Z,2.28
2022-08-09T19:11:35.470Z,2.40
2022-08-09T19:14:39.629Z,2.15
2022-08-09T19:17:54.432Z,1.90
2022-08-09T19:20:58.558Z,2.13
2022-08-09T19:24:37.779Z,2.20
2022-08-09T19:27:23.479Z,1.95
2022-08-09T19:30:28.313Z,2.20
2022-08-09T19:33:30.645Z,2.10
2022-08-09T19:36:32.799Z,1.98
2022-08-09T19:40:02.955Z,2.10
2022-08-09T19:42:55.754Z,2.05
2022-08-09T19:45:57.969Z,2.20
2022-08-09T19:49:02.620Z,2.15
2022-08-09T19:52:21.491Z,2.03
2022-08-09T19:55:30.906Z,2.10
2022-08-09T19:59:06.195Z,2.20
2022-08-09T20:02:17.300Z,2.05
2022-08-09T20:05:28.175Z,2.10
2022-08-09T20:08:34.929Z,2.05
2022-08-09T20:11:45.122Z,2.03
2022-08-09T20:14:53.505Z,2.20
2022-08-09T20:17:55.823Z,2.00
2022-08-09T20:20:57.761Z,2.30
2022-08-09T20:23:59.174Z,2.13
2022-08-09T20:27:05.751Z,2.30
2022-08-09T20:30:13.883Z,1.70
2022-08-09T20:33:19.586Z,2.03
2022-08-09T20:36:22.899Z,2.03
2022-08-09T20:40:16.306Z,2.15
2022-08-09T20:42:59.270Z,2.20
2022-08-09T20:46:42.452Z,2.42
2022-08-09T20:49:23.689Z,1.90
2022-08-09T20:52:25.162Z,2.00
2022-08-09T20:55:27.609Z,2.40
2022-08-09T20:58:32.913Z,2.00
2022-08-09T21:01:51.574Z,2.10
2022-08-09T21:05:53.444Z,2.13
2022-08-09T21:08:18.133Z,2.20
2022-08-09T21:14:43.439Z,1.90
2022-08-09T21:18:20.975Z,2.00
2022-08-09T21:21:17.123Z,2.13
2022-08-09T21:24:19.419Z,2.20
2022-08-09T21:27:51.702Z,1.98
2022-08-09T21:30:54.210Z,1.92
2022-08-09T21:33:56.796Z,2.20
2022-08-09T21:36:58.479Z,2.10
2022-08-09T21:40:00.721Z,2.00
2022-08-09T21:43:06.952Z,1.95
2022-08-09T21:46:11.150Z,2.10
2022-08-09T21:49:12.640Z,2.00
2022-08-09T21:52:20.250Z,2.28
2022-08-09T21:55:22.642Z,1.88
2022-08-09T21:58:31.043Z,1.95
2022-08-09T22:01:58.681Z,2.00
2022-08-09T22:04:58.062Z,2.20
2022-08-09T22:08:00.192Z,2.20
2022-08-09T22:11:49.992Z,2.10
2022-08-09T22:14:23.289Z,2.00
2022-08-09T22:17:32.193Z,1.90
2022-08-09T22:20:34.726Z,2.17
2022-08-09T22:23:58.592Z,2.30
2022-08-09T22:26:57.685Z,2.10
2022-08-09T22:29:59.114Z,2.30
2022-08-09T22:33:01.806Z,1.92
2022-08-09T22:36:04.072Z,1.88
2022-08-09T22:39:05.610Z,1.85
2022-08-09T22:42:20.646Z,2.03
2022-08-09T22:48:17.817Z,2.00
2022-08-09T22:48:46.266Z,2.00
2022-08-09T22:51:56.763Z,2.05
2022-08-09T22:54:58.729Z,1.92
2022-08-09T22:58:01.014Z,2.10
2022-08-09T23:01:06.443Z,2.03
2022-08-09T23:04:07.882Z,1.92
2022-08-09T23:08:21.471Z,1.90
2022-08-09T23:10:51.079Z,1.98
2022-08-09T23:13:53.961Z,1.95
2022-08-09T23:16:55.409Z,2.20
2022-08-09T23:20:06.260Z,2.08
2022-08-09T23:23:09.009Z,1.88
2022-08-09T23:26:10.486Z,2.05
2022-08-09T23:29:13.509Z,2.20
2022-08-09T23:32:14.998Z,2.00
2022-08-09T23:35:16.413Z,2.05
2022-08-09T23:38:19.030Z,2.10
2022-08-09T23:41:28.628Z,2.00
2022-08-09T23:44:30.989Z,2.03
2022-08-09T23:47:32.424Z,1.92
2022-08-09T23:50:33.834Z,2.00
2022-08-09T23:53:35.280Z,1.85
2022-08-09T23:56:53.082Z,2.45
